sensor_id;sensor_type;location;lat;lon;timestamp;P1;durP1;ratioP1;P2;durP2;ratioP2
8803;SDS011;4438;50.890;4.726;2023-09-30T00:01:09;5.60;;;4.80;;
8803;SDS011;4438;50.890;4.726;2023-09-30T00:03:35;5.37;;;4.87;;
8803;SDS011;4438;50.890;4.726;2023-09-30T00:06:02;5.13;;;4.63;;
8803;SDS011;4438;50.890;4.726;2023-09-30T00:08:29;5.33;;;4.53;;
8803;SDS011;4438;50.890;4.726;2023-09-30T00:10:55;4.60;;;4.20;;
8803;SDS011;4438;50.890;4.726;2023-09-30T00:13:21;5.60;;;4.43;;
8803;SDS011;4438;50.890;4.726;2023-09-30T00:15:48;5.27;;;4.77;;
8803;SDS011;4438;50.890;4.726;2023-09-30T00:18:14;6.03;;;5.00;;
8803;SDS011;4438;50.890;4.726;2023-09-30T00:20:40;5.77;;;4.93;;
8803;SDS011;4438;50.890;4.726;2023-09-30T00:23:06;5.40;;;4.43;;
8803;SDS011;4438;50.890;4.726;2023-09-30T00:25:32;7.67;;;4.20;;
8803;SDS011;4438;50.890;4.726;2023-09-30T00:27:59;5.27;;;4.53;;
8803;SDS011;4438;50.890;4.726;2023-09-30T00:30:25;7.23;;;4.50;;
8803;SDS011;4438;50.890;4.726;2023-09-30T00:32:51;4.57;;;4.17;;
8803;SDS011;4438;50.890;4.726;2023-09-30T00:35:17;5.30;;;4.40;;
8803;SDS011;4438;50.890;4.726;2023-09-30T00:37:43;4.53;;;4.10;;
8803;SDS011;4438;50.890;4.726;2023-09-30T00:40:10;4.43;;;3.73;;
8803;SDS011;4438;50.890;4.726;2023-09-30T00:42:40;5.43;;;4.33;;
8803;SDS011;4438;50.890;4.726;2023-09-30T00:45:06;5.00;;;4.50;;
8803;SDS011;4438;50.890;4.726;2023-09-30T00:47:36;5.00;;;4.43;;
8803;SDS011;4438;50.890;4.726;2023-09-30T00:50:03;5.33;;;4.47;;
8803;SDS011;4438;50.890;4.726;2023-09-30T00:52:32;5.53;;;4.73;;
8803;SDS011;4438;50.890;4.726;2023-09-30T00:54:59;5.30;;;4.80;;
8803;SDS011;4438;50.890;4.726;2023-09-30T00:57:26;5.97;;;5.10;;
8803;SDS011;4438;50.890;4.726;2023-09-30T00:59:53;4.87;;;4.37;;
8803;SDS011;4438;50.890;4.726;2023-09-30T01:02:19;5.00;;;4.50;;
8803;SDS011;4438;50.890;4.726;2023-09-30T01:04:45;4.90;;;4.50;;
8803;SDS011;4438;50.890;4.726;2023-09-30T01:07:11;4.93;;;4.37;;
8803;SDS011;4438;50.890;4.726;2023-09-30T01:09:37;5.33;;;4.30;;
8803;SDS011;4438;50.890;4.726;2023-09-30T01:12:04;5.10;;;4.60;;
8803;SDS011;4438;50.890;4.726;2023-09-30T01:14:30;6.17;;;4.27;;
8803;SDS011;4438;50.890;4.726;2023-09-30T01:16:57;5.27;;;4.67;;
8803;SDS011;4438;50.890;4.726;2023-09-30T01:19:23;4.43;;;4.03;;
8803;SDS011;4438;50.890;4.726;2023-09-30T01:21:53;5.00;;;3.90;;
8803;SDS011;4438;50.890;4.726;2023-09-30T01:24:23;4.97;;;4.37;;
8803;SDS011;4438;50.890;4.726;2023-09-30T01:26:50;4.83;;;4.40;;
8803;SDS011;4438;50.890;4.726;2023-09-30T01:29:17;7.53;;;4.57;;
8803;SDS011;4438;50.890;4.726;2023-09-30T01:31:43;5.10;;;4.60;;
8803;SDS011;4438;50.890;4.726;2023-09-30T01:34:13;4.27;;;3.97;;
8803;SDS011;4438;50.890;4.726;2023-09-30T01:36:39;4.50;;;4.10;;
8803;SDS011;4438;50.890;4.726;2023-09-30T01:39:05;4.90;;;4.37;;
8803;SDS011;4438;50.890;4.726;2023-09-30T01:41:32;4.60;;;4.20;;
8803;SDS011;4438;50.890;4.726;2023-09-30T01:43:58;5.67;;;4.50;;
8803;SDS011;4438;50.890;4.726;2023-09-30T01:46:24;6.70;;;4.73;;
8803;SDS011;4438;50.890;4.726;2023-09-30T01:48:50;5.40;;;4.80;;
8803;SDS011;4438;50.890;4.726;2023-09-30T01:51:16;5.73;;;4.83;;
8803;SDS011;4438;50.890;4.726;2023-09-30T01:53:42;5.10;;;4.60;;
8803;SDS011;4438;50.890;4.726;2023-09-30T01:56:09;5.43;;;4.93;;
8803;SDS011;4438;50.890;4.726;2023-09-30T01:58:35;5.83;;;4.87;;
8803;SDS011;4438;50.890;4.726;2023-09-30T02:01:02;3.93;;;3.53;;
8803;SDS011;4438;50.890;4.726;2023-09-30T02:03:28;4.50;;;4.10;;
8803;SDS011;4438;50.890;4.726;2023-09-30T02:05:54;5.17;;;4.27;;
8803;SDS011;4438;50.890;4.726;2023-09-30T02:08:20;5.00;;;4.60;;
8803;SDS011;4438;50.890;4.726;2023-09-30T02:10:47;4.90;;;4.50;;
8803;SDS011;4438;50.890;4.726;2023-09-30T02:13:13;5.27;;;4.63;;
8803;SDS011;4438;50.890;4.726;2023-09-30T02:15:40;5.43;;;4.27;;
8803;SDS011;4438;50.890;4.726;2023-09-30T02:18:06;4.57;;;4.17;;
8803;SDS011;4438;50.890;4.726;2023-09-30T02:20:32;5.23;;;4.40;;
8803;SDS011;4438;50.890;4.726;2023-09-30T02:22:59;5.40;;;4.90;;
8803;SDS011;4438;50.890;4.726;2023-09-30T02:25:27;4.60;;;4.20;;
8803;SDS011;4438;50.890;4.726;2023-09-30T02:27:53;4.80;;;4.40;;
8803;SDS011;4438;50.890;4.726;2023-09-30T02:30:19;4.60;;;4.13;;
8803;SDS011;4438;50.890;4.726;2023-09-30T02:32:46;5.20;;;4.40;;
8803;SDS011;4438;50.890;4.726;2023-09-30T02:35:12;6.00;;;4.20;;
8803;SDS011;4438;50.890;4.726;2023-09-30T02:37:40;5.33;;;4.33;;
8803;SDS011;4438;50.890;4.726;2023-09-30T02:40:06;4.70;;;4.20;;
8803;SDS011;4438;50.890;4.726;2023-09-30T02:42:39;6.40;;;4.63;;
8803;SDS011;4438;50.890;4.726;2023-09-30T02:45:06;5.60;;;4.70;;
8803;SDS011;4438;50.890;4.726;2023-09-30T02:47:33;4.63;;;4.23;;
8803;SDS011;4438;50.890;4.726;2023-09-30T02:50:00;4.90;;;4.40;;
8803;SDS011;4438;50.890;4.726;2023-09-30T02:52:26;4.80;;;4.30;;
8803;SDS011;4438;50.890;4.726;2023-09-30T02:54:54;4.87;;;4.40;;
8803;SDS011;4438;50.890;4.726;2023-09-30T02:57:20;4.50;;;4.10;;
8803;SDS011;4438;50.890;4.726;2023-09-30T02:59:47;4.60;;;4.20;;
8803;SDS011;4438;50.890;4.726;2023-09-30T03:02:13;4.63;;;4.23;;
8803;SDS011;4438;50.890;4.726;2023-09-30T03:04:40;6.40;;;4.80;;
8803;SDS011;4438;50.890;4.726;2023-09-30T03:07:07;7.90;;;5.73;;
8803;SDS011;4438;50.890;4.726;2023-09-30T03:09:34;6.87;;;6.00;;
8803;SDS011;4438;50.890;4.726;2023-09-30T03:12:01;6.97;;;5.90;;
8803;SDS011;4438;50.890;4.726;2023-09-30T03:14:27;6.80;;;5.27;;
8803;SDS011;4438;50.890;4.726;2023-09-30T03:16:56;6.27;;;5.20;;
8803;SDS011;4438;50.890;4.726;2023-09-30T03:19:22;5.47;;;4.97;;
8803;SDS011;4438;50.890;4.726;2023-09-30T03:21:49;5.80;;;5.20;;
8803;SDS011;4438;50.890;4.726;2023-09-30T03:24:15;5.60;;;5.10;;
8803;SDS011;4438;50.890;4.726;2023-09-30T03:26:41;5.53;;;5.03;;
8803;SDS011;4438;50.890;4.726;2023-09-30T03:29:09;5.43;;;4.93;;
8803;SDS011;4438;50.890;4.726;2023-09-30T03:31:35;5.83;;;5.17;;
8803;SDS011;4438;50.890;4.726;2023-09-30T03:34:02;5.70;;;5.00;;
8803;SDS011;4438;50.890;4.726;2023-09-30T03:36:29;7.60;;;5.00;;
8803;SDS011;4438;50.890;4.726;2023-09-30T03:38:55;5.80;;;4.77;;
8803;SDS011;4438;50.890;4.726;2023-09-30T03:41:22;6.10;;;5.50;;
8803;SDS011;4438;50.890;4.726;2023-09-30T03:43:48;5.57;;;5.07;;
8803;SDS011;4438;50.890;4.726;2023-09-30T03:46:14;6.17;;;5.57;;
8803;SDS011;4438;50.890;4.726;2023-09-30T03:48:41;7.40;;;5.67;;
8803;SDS011;4438;50.890;4.726;2023-09-30T03:51:11;6.10;;;4.97;;
8803;SDS011;4438;50.890;4.726;2023-09-30T03:53:41;5.60;;;5.00;;
8803;SDS011;4438;50.890;4.726;2023-09-30T03:56:07;6.23;;;5.03;;
8803;SDS011;4438;50.890;4.726;2023-09-30T03:58:36;5.83;;;5.20;;
8803;SDS011;4438;50.890;4.726;2023-09-30T04:01:03;6.83;;;6.10;;
8803;SDS011;4438;50.890;4.726;2023-09-30T04:03:29;6.13;;;5.63;;
8803;SDS011;4438;50.890;4.726;2023-09-30T04:05:58;7.27;;;5.50;;
8803;SDS011;4438;50.890;4.726;2023-09-30T04:08:24;6.50;;;5.37;;
8803;SDS011;4438;50.890;4.726;2023-09-30T04:10:51;6.73;;;5.60;;
8803;SDS011;4438;50.890;4.726;2023-09-30T04:13:17;6.20;;;5.60;;
8803;SDS011;4438;50.890;4.726;2023-09-30T04:15:44;6.50;;;5.90;;
8803;SDS011;4438;50.890;4.726;2023-09-30T04:18:11;6.40;;;4.70;;
8803;SDS011;4438;50.890;4.726;2023-09-30T04:20:37;6.13;;;5.50;;
8803;SDS011;4438;50.890;4.726;2023-09-30T04:23:05;5.63;;;5.13;;
8803;SDS011;4438;50.890;4.726;2023-09-30T04:25:31;7.47;;;5.20;;
8803;SDS011;4438;50.890;4.726;2023-09-30T04:27:57;7.50;;;5.80;;
8803;SDS011;4438;50.890;4.726;2023-09-30T04:30:23;6.93;;;6.13;;
8803;SDS011;4438;50.890;4.726;2023-09-30T04:32:50;5.97;;;5.47;;
8803;SDS011;4438;50.890;4.726;2023-09-30T04:35:16;6.90;;;6.23;;
8803;SDS011;4438;50.890;4.726;2023-09-30T04:37:42;8.30;;;6.27;;
8803;SDS011;4438;50.890;4.726;2023-09-30T04:40:09;6.90;;;6.20;;
8803;SDS011;4438;50.890;4.726;2023-09-30T04:42:47;7.87;;;6.17;;
8803;SDS011;4438;50.890;4.726;2023-09-30T04:45:14;6.33;;;5.73;;
8803;SDS011;4438;50.890;4.726;2023-09-30T04:47:45;6.87;;;6.17;;
8803;SDS011;4438;50.890;4.726;2023-09-30T04:50:13;8.40;;;6.33;;
8803;SDS011;4438;50.890;4.726;2023-09-30T04:52:40;7.03;;;6.33;;
8803;SDS011;4438;50.890;4.726;2023-09-30T04:55:06;7.27;;;6.53;;
8803;SDS011;4438;50.890;4.726;2023-09-30T04:57:33;7.67;;;6.53;;
8803;SDS011;4438;50.890;4.726;2023-09-30T05:00:00;10.13;;;7.97;;
8803;SDS011;4438;50.890;4.726;2023-09-30T05:02:26;11.27;;;7.33;;
8803;SDS011;4438;50.890;4.726;2023-09-30T05:04:53;7.70;;;6.90;;
8803;SDS011;4438;50.890;4.726;2023-09-30T05:07:21;9.87;;;7.83;;
8803;SDS011;4438;50.890;4.726;2023-09-30T05:09:48;7.77;;;6.83;;
8803;SDS011;4438;50.890;4.726;2023-09-30T05:12:14;8.83;;;6.73;;
8803;SDS011;4438;50.890;4.726;2023-09-30T05:14:41;7.50;;;6.70;;
8803;SDS011;4438;50.890;4.726;2023-09-30T05:17:08;8.50;;;6.77;;
8803;SDS011;4438;50.890;4.726;2023-09-30T05:19:34;7.97;;;6.70;;
8803;SDS011;4438;50.890;4.726;2023-09-30T05:22:02;7.73;;;6.93;;
8803;SDS011;4438;50.890;4.726;2023-09-30T05:24:30;7.70;;;6.90;;
8803;SDS011;4438;50.890;4.726;2023-09-30T05:26:56;7.80;;;6.77;;
8803;SDS011;4438;50.890;4.726;2023-09-30T05:29:22;8.30;;;7.50;;
8803;SDS011;4438;50.890;4.726;2023-09-30T05:31:48;9.07;;;7.20;;
8803;SDS011;4438;50.890;4.726;2023-09-30T05:34:14;7.80;;;6.60;;
8803;SDS011;4438;50.890;4.726;2023-09-30T05:36:41;7.80;;;7.10;;
8803;SDS011;4438;50.890;4.726;2023-09-30T05:39:07;8.33;;;7.53;;
8803;SDS011;4438;50.890;4.726;2023-09-30T05:41:35;8.07;;;7.27;;
8803;SDS011;4438;50.890;4.726;2023-09-30T05:44:02;8.63;;;7.40;;
8803;SDS011;4438;50.890;4.726;2023-09-30T05:46:30;8.33;;;7.53;;
8803;SDS011;4438;50.890;4.726;2023-09-30T05:48:56;10.73;;;7.93;;
8803;SDS011;4438;50.890;4.726;2023-09-30T05:51:22;9.17;;;8.07;;
8803;SDS011;4438;50.890;4.726;2023-09-30T05:53:49;12.93;;;8.93;;
8803;SDS011;4438;50.890;4.726;2023-09-30T05:56:15;10.33;;;8.50;;
8803;SDS011;4438;50.890;4.726;2023-09-30T05:58:42;10.73;;;8.33;;
8803;SDS011;4438;50.890;4.726;2023-09-30T06:01:08;9.90;;;8.90;;
8803;SDS011;4438;50.890;4.726;2023-09-30T06:03:38;13.53;;;9.03;;
8803;SDS011;4438;50.890;4.726;2023-09-30T06:06:11;11.63;;;9.13;;
8803;SDS011;4438;50.890;4.726;2023-09-30T06:08:38;10.73;;;9.63;;
8803;SDS011;4438;50.890;4.726;2023-09-30T06:11:04;10.10;;;9.07;;
8803;SDS011;4438;50.890;4.726;2023-09-30T06:13:31;11.77;;;9.03;;
8803;SDS011;4438;50.890;4.726;2023-09-30T06:15:58;10.57;;;9.47;;
8803;SDS011;4438;50.890;4.726;2023-09-30T06:18:24;12.17;;;10.30;;
8803;SDS011;4438;50.890;4.726;2023-09-30T06:20:50;12.53;;;9.80;;
8803;SDS011;4438;50.890;4.726;2023-09-30T06:23:17;11.77;;;10.33;;
8803;SDS011;4438;50.890;4.726;2023-09-30T06:25:43;11.57;;;9.80;;
8803;SDS011;4438;50.890;4.726;2023-09-30T06:28:09;12.97;;;10.80;;
8803;SDS011;4438;50.890;4.726;2023-09-30T06:30:35;12.70;;;10.27;;
8803;SDS011;4438;50.890;4.726;2023-09-30T06:33:02;11.90;;;10.00;;
8803;SDS011;4438;50.890;4.726;2023-09-30T06:35:30;14.53;;;10.77;;
8803;SDS011;4438;50.890;4.726;2023-09-30T06:38:02;12.63;;;9.77;;
8803;SDS011;4438;50.890;4.726;2023-09-30T06:40:28;12.40;;;9.60;;
8803;SDS011;4438;50.890;4.726;2023-09-30T06:42:54;11.27;;;10.03;;
8803;SDS011;4438;50.890;4.726;2023-09-30T06:45:20;14.50;;;10.47;;
8803;SDS011;4438;50.890;4.726;2023-09-30T06:47:47;14.17;;;10.03;;
8803;SDS011;4438;50.890;4.726;2023-09-30T06:50:13;11.83;;;9.87;;
8803;SDS011;4438;50.890;4.726;2023-09-30T06:52:41;13.43;;;9.57;;
8803;SDS011;4438;50.890;4.726;2023-09-30T06:55:10;18.57;;;11.20;;
8803;SDS011;4438;50.890;4.726;2023-09-30T06:57:39;14.03;;;10.13;;
8803;SDS011;4438;50.890;4.726;2023-09-30T07:00:12;15.43;;;10.37;;
8803;SDS011;4438;50.890;4.726;2023-09-30T07:02:39;13.93;;;10.60;;
8803;SDS011;4438;50.890;4.726;2023-09-30T07:05:07;16.60;;;10.43;;
8803;SDS011;4438;50.890;4.726;2023-09-30T07:07:33;15.97;;;10.83;;
8803;SDS011;4438;50.890;4.726;2023-09-30T07:09:59;15.77;;;10.93;;
8803;SDS011;4438;50.890;4.726;2023-09-30T07:12:25;13.23;;;9.80;;
8803;SDS011;4438;50.890;4.726;2023-09-30T07:14:52;17.23;;;10.80;;
8803;SDS011;4438;50.890;4.726;2023-09-30T07:17:19;13.70;;;10.60;;
8803;SDS011;4438;50.890;4.726;2023-09-30T07:19:45;16.33;;;10.83;;
8803;SDS011;4438;50.890;4.726;2023-09-30T07:22:11;12.33;;;9.70;;
8803;SDS011;4438;50.890;4.726;2023-09-30T07:24:38;17.53;;;10.40;;
8803;SDS011;4438;50.890;4.726;2023-09-30T07:27:04;14.33;;;9.50;;
8803;SDS011;4438;50.890;4.726;2023-09-30T07:29:31;12.37;;;9.47;;
8803;SDS011;4438;50.890;4.726;2023-09-30T07:31:58;11.57;;;9.10;;
8803;SDS011;4438;50.890;4.726;2023-09-30T07:34:24;14.43;;;10.33;;
8803;SDS011;4438;50.890;4.726;2023-09-30T07:36:50;12.70;;;10.00;;
8803;SDS011;4438;50.890;4.726;2023-09-30T07:39:16;14.20;;;9.70;;
8803;SDS011;4438;50.890;4.726;2023-09-30T07:41:43;13.77;;;8.70;;
8803;SDS011;4438;50.890;4.726;2023-09-30T07:44:09;13.73;;;9.27;;
8803;SDS011;4438;50.890;4.726;2023-09-30T07:46:35;11.63;;;8.67;;
8803;SDS011;4438;50.890;4.726;2023-09-30T07:49:01;17.93;;;10.30;;
8803;SDS011;4438;50.890;4.726;2023-09-30T07:51:29;16.70;;;9.07;;
8803;SDS011;4438;50.890;4.726;2023-09-30T07:53:55;16.03;;;10.23;;
8803;SDS011;4438;50.890;4.726;2023-09-30T07:56:22;13.27;;;9.17;;
8803;SDS011;4438;50.890;4.726;2023-09-30T07:58:48;12.83;;;9.33;;
8803;SDS011;4438;50.890;4.726;2023-09-30T08:01:15;15.30;;;9.90;;
8803;SDS011;4438;50.890;4.726;2023-09-30T08:03:43;12.00;;;8.07;;
8803;SDS011;4438;50.890;4.726;2023-09-30T08:06:09;16.73;;;9.37;;
8803;SDS011;4438;50.890;4.726;2023-09-30T08:08:35;12.77;;;8.50;;
8803;SDS011;4438;50.890;4.726;2023-09-30T08:11:01;16.53;;;8.90;;
8803;SDS011;4438;50.890;4.726;2023-09-30T08:13:28;13.57;;;8.83;;
8803;SDS011;4438;50.890;4.726;2023-09-30T08:15:54;16.50;;;8.63;;
8803;SDS011;4438;50.890;4.726;2023-09-30T08:18:20;15.27;;;8.70;;
8803;SDS011;4438;50.890;4.726;2023-09-30T08:20:47;11.50;;;8.10;;
8803;SDS011;4438;50.890;4.726;2023-09-30T08:23:14;16.13;;;8.37;;
8803;SDS011;4438;50.890;4.726;2023-09-30T08:25:40;17.93;;;9.00;;
8803;SDS011;4438;50.890;4.726;2023-09-30T08:28:06;15.03;;;8.57;;
8803;SDS011;4438;50.890;4.726;2023-09-30T08:30:34;14.53;;;8.60;;
8803;SDS011;4438;50.890;4.726;2023-09-30T08:33:01;11.93;;;7.80;;
8803;SDS011;4438;50.890;4.726;2023-09-30T08:35:29;15.47;;;8.33;;
8803;SDS011;4438;50.890;4.726;2023-09-30T08:37:55;16.00;;;8.43;;
8803;SDS011;4438;50.890;4.726;2023-09-30T08:40:23;13.00;;;7.60;;
8803;SDS011;4438;50.890;4.726;2023-09-30T08:42:51;15.80;;;8.83;;
8803;SDS011;4438;50.890;4.726;2023-09-30T08:45:17;15.63;;;8.77;;
8803;SDS011;4438;50.890;4.726;2023-09-30T08:47:44;14.70;;;7.90;;
8803;SDS011;4438;50.890;4.726;2023-09-30T08:50:11;14.73;;;7.43;;
8803;SDS011;4438;50.890;4.726;2023-09-30T08:52:39;16.90;;;7.87;;
8803;SDS011;4438;50.890;4.726;2023-09-30T08:55:09;15.27;;;8.37;;
8803;SDS011;4438;50.890;4.726;2023-09-30T08:57:42;16.03;;;7.70;;
8803;SDS011;4438;50.890;4.726;2023-09-30T09:00:09;14.33;;;7.70;;
8803;SDS011;4438;50.890;4.726;2023-09-30T09:02:36;12.90;;;7.20;;
8803;SDS011;4438;50.890;4.726;2023-09-30T09:05:02;16.73;;;7.40;;
8803;SDS011;4438;50.890;4.726;2023-09-30T09:07:29;12.97;;;7.30;;
8803;SDS011;4438;50.890;4.726;2023-09-30T09:10:05;13.83;;;6.30;;
8803;SDS011;4438;50.890;4.726;2023-09-30T09:12:33;12.53;;;6.07;;
8803;SDS011;4438;50.890;4.726;2023-09-30T09:14:59;15.03;;;6.53;;
8803;SDS011;4438;50.890;4.726;2023-09-30T09:17:39;10.83;;;6.00;;
8803;SDS011;4438;50.890;4.726;2023-09-30T09:20:06;10.53;;;5.80;;
8803;SDS011;4438;50.890;4.726;2023-09-30T09:22:44;10.93;;;6.13;;
8803;SDS011;4438;50.890;4.726;2023-09-30T09:25:10;9.67;;;5.50;;
8803;SDS011;4438;50.890;4.726;2023-09-30T09:27:37;10.83;;;5.73;;
8803;SDS011;4438;50.890;4.726;2023-09-30T09:32:54;10.40;;;6.40;;
8803;SDS011;4438;50.890;4.726;2023-09-30T09:35:21;13.20;;;5.57;;
8803;SDS011;4438;50.890;4.726;2023-09-30T09:37:54;10.37;;;5.60;;
8803;SDS011;4438;50.890;4.726;2023-09-30T09:40:24;11.87;;;6.17;;
8803;SDS011;4438;50.890;4.726;2023-09-30T09:42:50;9.47;;;5.90;;
8803;SDS011;4438;50.890;4.726;2023-09-30T09:45:19;9.20;;;5.60;;
8803;SDS011;4438;50.890;4.726;2023-09-30T09:47:47;11.17;;;6.30;;
8803;SDS011;4438;50.890;4.726;2023-09-30T09:50:14;9.80;;;5.73;;
8803;SDS011;4438;50.890;4.726;2023-09-30T09:52:41;12.30;;;5.63;;
8803;SDS011;4438;50.890;4.726;2023-09-30T09:55:09;10.20;;;5.60;;
8803;SDS011;4438;50.890;4.726;2023-09-30T09:57:36;9.77;;;6.03;;
8803;SDS011;4438;50.890;4.726;2023-09-30T10:00:03;10.60;;;5.80;;
8803;SDS011;4438;50.890;4.726;2023-09-30T10:02:34;10.93;;;5.77;;
8803;SDS011;4438;50.890;4.726;2023-09-30T10:05:01;9.00;;;5.57;;
8803;SDS011;4438;50.890;4.726;2023-09-30T10:07:30;9.37;;;5.00;;
8803;SDS011;4438;50.890;4.726;2023-09-30T10:09:59;9.90;;;4.80;;
8803;SDS011;4438;50.890;4.726;2023-09-30T10:12:26;8.00;;;4.73;;
8803;SDS011;4438;50.890;4.726;2023-09-30T10:14:52;10.87;;;5.83;;
8803;SDS011;4438;50.890;4.726;2023-09-30T10:17:19;7.80;;;5.00;;
8803;SDS011;4438;50.890;4.726;2023-09-30T10:22:31;9.27;;;4.53;;
8803;SDS011;4438;50.890;4.726;2023-09-30T10:24:58;6.50;;;4.23;;
8803;SDS011;4438;50.890;4.726;2023-09-30T10:29:57;8.50;;;4.30;;
8803;SDS011;4438;50.890;4.726;2023-09-30T10:35:11;5.87;;;4.07;;
8803;SDS011;4438;50.890;4.726;2023-09-30T10:37:37;6.07;;;3.80;;
8803;SDS011;4438;50.890;4.726;2023-09-30T10:40:03;5.80;;;4.03;;
8803;SDS011;4438;50.890;4.726;2023-09-30T10:42:50;6.97;;;4.33;;
8803;SDS011;4438;50.890;4.726;2023-09-30T10:50:49;6.83;;;4.40;;
8803;SDS011;4438;50.890;4.726;2023-09-30T10:53:16;5.77;;;3.60;;
8803;SDS011;4438;50.890;4.726;2023-09-30T10:55:46;6.60;;;4.03;;
8803;SDS011;4438;50.890;4.726;2023-09-30T10:58:13;6.47;;;4.33;;
8803;SDS011;4438;50.890;4.726;2023-09-30T11:00:39;6.63;;;3.60;;
8803;SDS011;4438;50.890;4.726;2023-09-30T11:03:10;6.20;;;3.63;;
8803;SDS011;4438;50.890;4.726;2023-09-30T11:05:37;8.10;;;3.30;;
8803;SDS011;4438;50.890;4.726;2023-09-30T11:08:03;6.23;;;3.40;;
8803;SDS011;4438;50.890;4.726;2023-09-30T11:10:29;5.73;;;3.23;;
8803;SDS011;4438;50.890;4.726;2023-09-30T11:12:57;5.67;;;3.53;;
8803;SDS011;4438;50.890;4.726;2023-09-30T11:15:24;7.80;;;3.83;;
8803;SDS011;4438;50.890;4.726;2023-09-30T11:17:51;4.87;;;3.00;;
8803;SDS011;4438;50.890;4.726;2023-09-30T11:20:18;5.43;;;3.47;;
8803;SDS011;4438;50.890;4.726;2023-09-30T11:22:44;7.40;;;3.70;;
8803;SDS011;4438;50.890;4.726;2023-09-30T11:25:17;5.90;;;3.93;;
8803;SDS011;4438;50.890;4.726;2023-09-30T11:27:44;5.47;;;3.47;;
8803;SDS011;4438;50.890;4.726;2023-09-30T11:30:12;7.53;;;4.03;;
8803;SDS011;4438;50.890;4.726;2023-09-30T11:32:38;6.20;;;3.53;;
8803;SDS011;4438;50.890;4.726;2023-09-30T11:35:21;8.13;;;3.77;;
8803;SDS011;4438;50.890;4.726;2023-09-30T11:37:47;5.90;;;3.33;;
8803;SDS011;4438;50.890;4.726;2023-09-30T11:40:13;4.63;;;3.10;;
8803;SDS011;4438;50.890;4.726;2023-09-30T11:42:40;5.43;;;3.00;;
8803;SDS011;4438;50.890;4.726;2023-09-30T11:45:20;5.43;;;3.43;;
8803;SDS011;4438;50.890;4.726;2023-09-30T11:47:47;5.13;;;3.17;;
8803;SDS011;4438;50.890;4.726;2023-09-30T11:50:13;5.60;;;3.23;;
8803;SDS011;4438;50.890;4.726;2023-09-30T11:52:39;6.53;;;3.47;;
8803;SDS011;4438;50.890;4.726;2023-09-30T11:55:11;3.97;;;2.90;;
8803;SDS011;4438;50.890;4.726;2023-09-30T11:57:37;6.23;;;3.37;;
8803;SDS011;4438;50.890;4.726;2023-09-30T12:00:04;4.60;;;3.10;;
8803;SDS011;4438;50.890;4.726;2023-09-30T12:02:39;4.90;;;2.93;;
8803;SDS011;4438;50.890;4.726;2023-09-30T12:05:06;5.53;;;3.20;;
8803;SDS011;4438;50.890;4.726;2023-09-30T12:07:36;5.93;;;3.17;;
8803;SDS011;4438;50.890;4.726;2023-09-30T12:10:03;4.00;;;3.07;;
8803;SDS011;4438;50.890;4.726;2023-09-30T12:12:29;5.17;;;3.57;;
8803;SDS011;4438;50.890;4.726;2023-09-30T12:14:55;5.37;;;3.00;;
8803;SDS011;4438;50.890;4.726;2023-09-30T12:17:22;5.70;;;3.03;;
8803;SDS011;4438;50.890;4.726;2023-09-30T12:19:48;6.37;;;2.80;;
8803;SDS011;4438;50.890;4.726;2023-09-30T12:22:14;4.03;;;2.90;;
8803;SDS011;4438;50.890;4.726;2023-09-30T12:24:41;4.80;;;2.90;;
8803;SDS011;4438;50.890;4.726;2023-09-30T12:27:07;5.37;;;3.23;;
8803;SDS011;4438;50.890;4.726;2023-09-30T12:29:33;5.38;;;3.20;;
8803;SDS011;4438;50.890;4.726;2023-09-30T12:31:59;5.63;;;3.17;;
8803;SDS011;4438;50.890;4.726;2023-09-30T12:34:26;8.07;;;3.35;;
8803;SDS011;4438;50.890;4.726;2023-09-30T12:36:52;6.38;;;3.53;;
8803;SDS011;4438;50.890;4.726;2023-09-30T12:39:19;3.50;;;3.00;;
8803;SDS011;4438;50.890;4.726;2023-09-30T12:41:49;6.70;;;3.40;;
8803;SDS011;4438;50.890;4.726;2023-09-30T12:44:15;4.38;;;3.00;;
8803;SDS011;4438;50.890;4.726;2023-09-30T12:46:42;5.97;;;3.20;;
8803;SDS011;4438;50.890;4.726;2023-09-30T12:49:08;5.60;;;3.42;;
8803;SDS011;4438;50.890;4.726;2023-09-30T12:51:35;4.63;;;2.83;;
8803;SDS011;4438;50.890;4.726;2023-09-30T12:54:02;4.68;;;2.90;;
8803;SDS011;4438;50.890;4.726;2023-09-30T12:56:28;4.78;;;3.45;;
8803;SDS011;4438;50.890;4.726;2023-09-30T12:58:54;5.10;;;2.97;;
8803;SDS011;4438;50.890;4.726;2023-09-30T13:01:20;3.75;;;2.75;;
8803;SDS011;4438;50.890;4.726;2023-09-30T13:03:48;4.78;;;3.00;;
8803;SDS011;4438;50.890;4.726;2023-09-30T13:06:14;3.65;;;2.90;;
8803;SDS011;4438;50.890;4.726;2023-09-30T13:08:41;3.97;;;2.60;;
8803;SDS011;4438;50.890;4.726;2023-09-30T13:11:07;7.00;;;3.10;;
8803;SDS011;4438;50.890;4.726;2023-09-30T13:13:34;5.03;;;2.85;;
8803;SDS011;4438;50.890;4.726;2023-09-30T13:16:00;3.53;;;2.40;;
8803;SDS011;4438;50.890;4.726;2023-09-30T13:18:26;3.97;;;2.45;;
8803;SDS011;4438;50.890;4.726;2023-09-30T13:20:52;3.38;;;2.60;;
8803;SDS011;4438;50.890;4.726;2023-09-30T13:23:19;4.10;;;2.72;;
8803;SDS011;4438;50.890;4.726;2023-09-30T13:25:45;4.82;;;2.92;;
8803;SDS011;4438;50.890;4.726;2023-09-30T13:28:12;4.07;;;2.65;;
8803;SDS011;4438;50.890;4.726;2023-09-30T13:30:38;4.95;;;2.97;;
8803;SDS011;4438;50.890;4.726;2023-09-30T13:33:04;5.05;;;3.20;;
8803;SDS011;4438;50.890;4.726;2023-09-30T13:35:31;5.60;;;3.15;;
8803;SDS011;4438;50.890;4.726;2023-09-30T13:37:57;5.65;;;3.20;;
8803;SDS011;4438;50.890;4.726;2023-09-30T13:40:23;5.05;;;3.00;;
8803;SDS011;4438;50.890;4.726;2023-09-30T13:42:49;3.78;;;3.13;;
8803;SDS011;4438;50.890;4.726;2023-09-30T13:45:15;5.88;;;3.08;;
8803;SDS011;4438;50.890;4.726;2023-09-30T13:47:42;4.18;;;2.70;;
8803;SDS011;4438;50.890;4.726;2023-09-30T13:50:08;5.28;;;3.15;;
8803;SDS011;4438;50.890;4.726;2023-09-30T13:52:35;3.85;;;2.90;;
8803;SDS011;4438;50.890;4.726;2023-09-30T13:55:01;4.00;;;2.60;;
8803;SDS011;4438;50.890;4.726;2023-09-30T13:57:28;5.37;;;2.80;;
8803;SDS011;4438;50.890;4.726;2023-09-30T13:59:54;5.37;;;3.10;;
8803;SDS011;4438;50.890;4.726;2023-09-30T14:02:21;5.10;;;3.33;;
8803;SDS011;4438;50.890;4.726;2023-09-30T14:04:48;5.17;;;3.20;;
8803;SDS011;4438;50.890;4.726;2023-09-30T14:07:14;4.90;;;3.00;;
8803;SDS011;4438;50.890;4.726;2023-09-30T14:09:43;4.93;;;2.97;;
8803;SDS011;4438;50.890;4.726;2023-09-30T14:12:09;6.13;;;3.13;;
8803;SDS011;4438;50.890;4.726;2023-09-30T14:14:35;6.73;;;3.70;;
8803;SDS011;4438;50.890;4.726;2023-09-30T14:17:01;5.20;;;2.60;;
8803;SDS011;4438;50.890;4.726;2023-09-30T14:19:36;4.17;;;2.70;;
8803;SDS011;4438;50.890;4.726;2023-09-30T14:22:02;4.40;;;2.80;;
8803;SDS011;4438;50.890;4.726;2023-09-30T14:24:30;5.43;;;2.70;;
8803;SDS011;4438;50.890;4.726;2023-09-30T14:26:56;3.95;;;2.75;;
8803;SDS011;4438;50.890;4.726;2023-09-30T14:29:22;3.30;;;2.70;;
8803;SDS011;4438;50.890;4.726;2023-09-30T14:31:49;6.93;;;3.75;;
8803;SDS011;4438;50.890;4.726;2023-09-30T14:34:16;5.38;;;3.30;;
8803;SDS011;4438;50.890;4.726;2023-09-30T14:36:43;4.53;;;2.80;;
8803;SDS011;4438;50.890;4.726;2023-09-30T14:39:09;4.40;;;2.88;;
8803;SDS011;4438;50.890;4.726;2023-09-30T14:41:35;4.33;;;2.97;;
8803;SDS011;4438;50.890;4.726;2023-09-30T14:44:01;4.23;;;2.50;;
8803;SDS011;4438;50.890;4.726;2023-09-30T14:46:33;6.40;;;3.43;;
8803;SDS011;4438;50.890;4.726;2023-09-30T14:48:59;3.73;;;2.97;;
8803;SDS011;4438;50.890;4.726;2023-09-30T14:51:25;3.80;;;2.50;;
8803;SDS011;4438;50.890;4.726;2023-09-30T14:53:51;6.00;;;3.10;;
8803;SDS011;4438;50.890;4.726;2023-09-30T14:56:18;4.33;;;2.70;;
8803;SDS011;4438;50.890;4.726;2023-09-30T14:58:44;4.70;;;3.10;;
8803;SDS011;4438;50.890;4.726;2023-09-30T15:01:10;4.80;;;2.90;;
8803;SDS011;4438;50.890;4.726;2023-09-30T15:03:38;5.67;;;2.93;;
8803;SDS011;4438;50.890;4.726;2023-09-30T15:06:04;5.23;;;2.93;;
8803;SDS011;4438;50.890;4.726;2023-09-30T15:08:31;3.87;;;2.80;;
8803;SDS011;4438;50.890;4.726;2023-09-30T15:10:58;5.20;;;2.83;;
8803;SDS011;4438;50.890;4.726;2023-09-30T15:13:24;4.80;;;2.60;;
8803;SDS011;4438;50.890;4.726;2023-09-30T15:15:50;4.97;;;3.33;;
8803;SDS011;4438;50.890;4.726;2023-09-30T15:18:16;5.10;;;2.80;;
8803;SDS011;4438;50.890;4.726;2023-09-30T15:20:43;3.97;;;3.13;;
8803;SDS011;4438;50.890;4.726;2023-09-30T15:23:09;4.07;;;3.13;;
8803;SDS011;4438;50.890;4.726;2023-09-30T15:25:42;5.10;;;3.80;;